Lander, WY

1:55 PM MDT on September 16, 2014 (GMT -0600)
Hunt | Change Station
CLOSE
Current Station
Airport
Location: Lander,
Elevation: 5558 ft
Nearby Weather Stations

Elev 5558 ft 42.82 °N, 108.73 °W | Updated 1 hour ago

Clear
Clear
77 °F
Feels Like 77 °F
N
5
Wind Variable Wind from Variable

Today
High -- | Low -- °F
--% Chance of Precip.
Yesterday
High -- | Low -- °F
Precip. -- in
6:55 AM 7:22 PM
Last Quarter, 43% visible
Pressure 29.98 in
Visibility 10.0 miles
Clouds Clear
Dew Point 34 °F
Humidity 21%
Rainfall 0.00 in
Snow Depth 0 in , 0 in , 3 in
UV 8 out of 12
Pollen 6.10 out of 12
Air Quality Not available.
Flu Activity Not available.
METAR KLND 161853Z AUTO VRB04KT 10SM CLR 25/01 A3015 RMK AO2 SLP152 T02500011 TSNO

More Conditions Fewer Conditions

Pressure 29.98 in
Visibility 10.0 miles
Clouds Clear
Dew Point 34 °F
Humidity 21%
Rainfall 0.00 in
Snow Depth 0 in , 0 in , 3 in
UV 8 out of 12
Pollen 6.10 out of 12
Air Quality Not available.
Flu Activity Not available.
METAR KLND 161853Z AUTO VRB04KT 10SM CLR 25/01 A3015 RMK AO2 SLP152 T02500011 TSNO

More Conditions Fewer Conditions

10-Day Weather Forecast

Almanac

Astronomy

Sep. 16, 2014 Rise Set
Actual Time 6:55 AM MDT 7:22 PM MDT
Civil Twilight 6:27 AM MDT 7:50 PM MDT
Nautical Twilight 5:53 AM MDT 8:24 PM MDT
Astronomical Twilight 5:19 AM MDT 8:58 PM MDT
Moon 12:01 AM MDT 2:54 PM MDT
Length of Visible Light 13h 23m
Length of Day
12h 27m
Tomorrow will be 2m 52s shorter.
Last Quarter, 43% of the Moon is Illuminated
Today
Last Quarter
Sep 24
New
Oct 1
First Quarter
Oct 8
Full
Oct 15
Last Quarter

Today's Extremes

State Highs State Lows

Community

WunderPhotos

Upload Photos

1,753,860 photos uploaded!

Nearby

Snow Depth

Station Depth Elevation
Townsend Creek 0 in 8700 ft
Salt River Summit 0 in 7600 ft
New Fork Lake 3 in 8340 ft
North French Creek 0 in 10130 ft
Spring Creek Divide 0 in 9000 ft

Earthquake Activity

City Distance Mag. Time & Date
No recent earthquake activity has been reported nearby.
Minimum magnitude displayed is 2.5.

Coastal Water Temperatures

Place Temperature
No Stations Reporting

Nearby Weather Stations